PWSweather.com
Personal Weather Stations
Station Observations
FAUSKE
Nordland, Norway, FauskeNO 8200

Nordland, NorwayFauskeNO 8200

Lat: 67.2607586, Lon: 15.4114204

Elevation: 40

Station Type: Davis Vantage PRO2

http://www.bjornli.net/weather.html

High Low Average
Temperature 29.1°F-1.6°C 23.1°F-4.9°C 25.7°F-3.5°C
Dew Point 21.8°F-5.7°C 18.7°F-7.4°C 20.1°F-6.6°C
Winds 17.0 mph 27.4 kmh Calm Calm 6.0 mph SE9.7 kmh SE
Wind Gusts 25.0 mph40.2 kmh -- 11.0 mph17.7 kmh
Humidity 92% 66% 79%
Pressure 29.02 in982.7 mb 28.90 in978.7 mb -
Precipitation 0.00 in0.0 mm - -
Hour Temp Dew Point Humidity Winds Wind Gusts Pressure Precip Precip Rate Daily Precip Total
12:00 AM 29.1°F-1.6°C 19.2°F-7.1°C 66% 13.0 mph SE20.9 kmh SE 23.0 mph37.0 kmh 29.00 in982.1 mb 0.00 in0.0 mm 0.00 in0.0 mm 0.00 in0.0 mm
12:10 AM 29.1°F-1.6°C 19.2°F-7.1°C 66% 11.0 mph SE17.7 kmh SE 23.0 mph37.0 kmh 29.00 in982.1 mb 0.00 in0.0 mm 0.00 in0.0 mm 0.00 in0.0 mm
12:30 AM 28.9°F-1.7°C 19.7°F-6.8°C 68% 16.0 mph SE25.7 kmh SE 22.0 mph35.4 kmh 28.99 in981.7 mb 0.00 in0.0 mm 0.00 in0.0 mm 0.00 in0.0 mm
12:40 AM 28.8°F-1.8°C 19.9°F-6.7°C 69% 11.0 mph SE17.7 kmh SE 22.0 mph35.4 kmh 28.99 in981.7 mb 0.00 in0.0 mm 0.00 in0.0 mm 0.00 in0.0 mm
01:00 AM 28.5°F-1.9°C 20.0°F-6.7°C 70% 4.0 mph ESE6.4 kmh ESE 23.0 mph37.0 kmh 28.98 in981.4 mb 0.00 in0.0 mm 0.00 in0.0 mm 0.00 in0.0 mm
01:10 AM 28.6°F-1.9°C 20.1°F-6.6°C 70% 9.0 mph SE14.5 kmh SE 24.0 mph38.6 kmh 28.98 in981.4 mb 0.00 in0.0 mm 0.00 in0.0 mm 0.00 in0.0 mm
01:30 AM 28.5°F-1.9°C 20.3°F-6.5°C 71% 16.0 mph SE25.7 kmh SE 21.0 mph33.8 kmh 28.98 in981.4 mb 0.00 in0.0 mm 0.00 in0.0 mm 0.00 in0.0 mm
01:39 AM 28.4°F-2.0°C 20.5°F-6.4°C 72% 16.0 mph SE25.7 kmh SE 25.0 mph40.2 kmh 28.98 in981.4 mb 0.00 in0.0 mm 0.00 in0.0 mm 0.00 in0.0 mm
02:00 AM 28.4°F-2.0°C 20.2°F-6.6°C 71% 10.0 mph SE16.1 kmh SE 17.0 mph27.4 kmh 28.97 in981.0 mb 0.00 in0.0 mm 0.00 in0.0 mm 0.00 in0.0 mm
02:09 AM 28.3°F-2.1°C 20.4°F-6.4°C 72% 15.0 mph ESE24.1 kmh ESE 23.0 mph37.0 kmh 28.97 in981.0 mb 0.00 in0.0 mm 0.00 in0.0 mm 0.00 in0.0 mm
02:29 AM 28.2°F-2.1°C 20.4°F-6.4°C 72% 4.0 mph SSE6.4 kmh SSE 23.0 mph37.0 kmh 28.97 in981.0 mb 0.00 in0.0 mm 0.00 in0.0 mm 0.00 in0.0 mm
02:39 AM 28.3°F-2.1°C 20.8°F-6.2°C 73% 15.0 mph E24.1 kmh E 15.0 mph24.1 kmh 28.96 in980.7 mb 0.00 in0.0 mm 0.00 in0.0 mm 0.00 in0.0 mm
03:00 AM 27.8°F-2.3°C 20.6°F-6.3°C 74% 11.0 mph SE17.7 kmh SE 13.0 mph20.9 kmh 28.96 in980.7 mb 0.00 in0.0 mm 0.00 in0.0 mm 0.00 in0.0 mm
03:10 AM 27.7°F-2.4°C 20.8°F-6.2°C 75% 6.0 mph SE9.7 kmh SE 16.0 mph25.7 kmh 28.96 in980.7 mb 0.00 in0.0 mm 0.00 in0.0 mm 0.00 in0.0 mm
03:30 AM 27.3°F-2.6°C 20.4°F-6.4°C 75% 7.0 mph ESE11.3 kmh ESE 7.0 mph11.3 kmh 28.95 in980.4 mb 0.00 in0.0 mm 0.00 in0.0 mm 0.00 in0.0 mm
03:40 AM 27.4°F-2.6°C 20.2°F-6.6°C 74% 17.0 mph SE27.4 kmh SE 19.0 mph30.6 kmh 28.95 in980.4 mb 0.00 in0.0 mm 0.00 in0.0 mm 0.00 in0.0 mm
04:00 AM 27.3°F-2.6°C 20.4°F-6.4°C 75% 9.0 mph SE14.5 kmh SE 11.0 mph17.7 kmh 28.94 in980.0 mb 0.00 in0.0 mm 0.00 in0.0 mm 0.00 in0.0 mm
04:10 AM 27.4°F-2.6°C 20.2°F-6.6°C 74% 6.0 mph SE9.7 kmh SE 12.0 mph19.3 kmh 28.94 in980.0 mb 0.00 in0.0 mm 0.00 in0.0 mm 0.00 in0.0 mm
04:30 AM 27.5°F-2.5°C 20.0°F-6.7°C 73% 9.0 mph SE14.5 kmh SE 9.0 mph14.5 kmh 28.93 in979.7 mb 0.00 in0.0 mm 0.00 in0.0 mm 0.00 in0.0 mm
04:40 AM 27.4°F-2.6°C 20.2°F-6.6°C 74% 6.0 mph SE9.7 kmh SE 16.0 mph25.7 kmh 28.93 in979.7 mb 0.00 in0.0 mm 0.00 in0.0 mm 0.00 in0.0 mm
05:00 AM 27.1°F-2.7°C 20.9°F-6.2°C 77% 9.0 mph SE14.5 kmh SE 10.0 mph16.1 kmh 28.92 in979.3 mb 0.00 in0.0 mm 0.00 in0.0 mm 0.00 in0.0 mm
05:10 AM 27.1°F-2.7°C 21.2°F-6.0°C 78% 5.0 mph SSE8.0 kmh SSE 16.0 mph25.7 kmh 28.92 in979.3 mb 0.00 in0.0 mm 0.00 in0.0 mm 0.00 in0.0 mm
05:30 AM 26.9°F-2.8°C 21.0°F-6.1°C 78% 6.0 mph SE9.7 kmh SE 6.0 mph9.7 kmh 28.91 in979.0 mb 0.00 in0.0 mm 0.00 in0.0 mm 0.00 in0.0 mm
05:40 AM 26.9°F-2.8°C 21.3°F-5.9°C 79% Calm Calm 15.0 mph24.1 kmh 28.91 in979.0 mb 0.00 in0.0 mm 0.00 in0.0 mm 0.00 in0.0 mm
06:00 AM 26.1°F-3.3°C 21.4°F-5.9°C 82% Calm Calm 4.0 mph6.4 kmh 28.90 in978.7 mb 0.00 in0.0 mm 0.00 in0.0 mm 0.00 in0.0 mm
06:09 AM 26.0°F-3.3°C 21.8°F-5.7°C 84% Calm Calm 4.0 mph6.4 kmh 28.90 in978.7 mb 0.00 in0.0 mm 0.00 in0.0 mm 0.00 in0.0 mm
06:30 AM 25.7°F-3.5°C 21.8°F-5.7°C 85% Calm Calm 4.0 mph6.4 kmh 28.90 in978.7 mb 0.00 in0.0 mm 0.00 in0.0 mm 0.00 in0.0 mm
06:40 AM 25.7°F-3.5°C 21.8°F-5.7°C 85% Calm Calm -- 28.90 in978.7 mb 0.00 in0.0 mm 0.00 in0.0 mm 0.00 in0.0 mm
07:00 AM 25.6°F-3.6°C 21.7°F-5.7°C 85% Calm Calm -- 28.90 in978.7 mb 0.00 in0.0 mm 0.00 in0.0 mm 0.00 in0.0 mm
07:10 AM 25.6°F-3.6°C 21.5°F-5.8°C 84% Calm Calm -- 28.90 in978.7 mb 0.00 in0.0 mm 0.00 in0.0 mm 0.00 in0.0 mm
07:30 AM 26.2°F-3.2°C 21.5°F-5.8°C 82% 4.0 mph S6.4 kmh S 6.0 mph9.7 kmh 28.90 in978.7 mb 0.00 in0.0 mm 0.00 in0.0 mm 0.00 in0.0 mm
07:39 AM 26.8°F-2.9°C 20.6°F-6.3°C 77% 3.0 mph SSW4.8 kmh SSW 8.0 mph12.9 kmh 28.90 in978.7 mb 0.00 in0.0 mm 0.00 in0.0 mm 0.00 in0.0 mm
08:00 AM 26.9°F-2.8°C 20.1°F-6.6°C 75% 6.0 mph S9.7 kmh S 7.0 mph11.3 kmh 28.91 in979.0 mb 0.00 in0.0 mm 0.00 in0.0 mm 0.00 in0.0 mm
08:10 AM 27.1°F-2.7°C 19.9°F-6.7°C 74% 9.0 mph S14.5 kmh S 13.0 mph20.9 kmh 28.91 in979.0 mb 0.00 in0.0 mm 0.00 in0.0 mm 0.00 in0.0 mm
08:29 AM 26.8°F-2.9°C 20.0°F-6.7°C 75% 8.0 mph S12.9 kmh S 16.0 mph25.7 kmh 28.91 in979.0 mb 0.00 in0.0 mm 0.00 in0.0 mm 0.00 in0.0 mm
08:39 AM 26.5°F-3.1°C 19.7°F-6.8°C 75% 10.0 mph SSW16.1 kmh SSW 15.0 mph24.1 kmh 28.91 in979.0 mb 0.00 in0.0 mm 0.00 in0.0 mm 0.00 in0.0 mm
09:00 AM 26.2°F-3.2°C 20.0°F-6.7°C 77% 2.0 mph S3.2 kmh S 6.0 mph9.7 kmh 28.91 in979.0 mb 0.00 in0.0 mm 0.00 in0.0 mm 0.00 in0.0 mm
09:10 AM 26.2°F-3.2°C 20.6°F-6.3°C 79% 7.0 mph S11.3 kmh S 13.0 mph20.9 kmh 28.91 in979.0 mb 0.00 in0.0 mm 0.00 in0.0 mm 0.00 in0.0 mm
09:29 AM 25.7°F-3.5°C 20.7°F-6.3°C 81% 5.0 mph SSW8.0 kmh SSW 16.0 mph25.7 kmh 28.91 in979.0 mb 0.00 in0.0 mm 0.00 in0.0 mm 0.00 in0.0 mm
09:40 AM 25.7°F-3.5°C 20.4°F-6.4°C 80% 7.0 mph SW11.3 kmh SW 12.0 mph19.3 kmh 28.91 in979.0 mb 0.00 in0.0 mm 0.00 in0.0 mm 0.00 in0.0 mm
10:00 AM 25.9°F-3.4°C 20.0°F-6.7°C 78% 2.0 mph S3.2 kmh S 2.0 mph3.2 kmh 28.92 in979.3 mb 0.00 in0.0 mm 0.00 in0.0 mm 0.00 in0.0 mm
10:10 AM 26.1°F-3.3°C 20.2°F-6.6°C 78% Calm Calm 7.0 mph11.3 kmh 28.92 in979.3 mb 0.00 in0.0 mm 0.00 in0.0 mm 0.00 in0.0 mm
10:30 AM 26.2°F-3.2°C 20.3°F-6.5°C 78% 2.0 mph S3.2 kmh S 8.0 mph12.9 kmh 28.92 in979.3 mb 0.00 in0.0 mm 0.00 in0.0 mm 0.00 in0.0 mm
10:40 AM 26.3°F-3.2°C 20.4°F-6.4°C 78% 1.0 mph S1.6 kmh S 10.0 mph16.1 kmh 28.92 in979.3 mb 0.00 in0.0 mm 0.00 in0.0 mm 0.00 in0.0 mm
11:00 AM 26.2°F-3.2°C 20.3°F-6.5°C 78% 6.0 mph S9.7 kmh S 7.0 mph11.3 kmh 28.92 in979.3 mb 0.00 in0.0 mm 0.00 in0.0 mm 0.00 in0.0 mm
11:10 AM 26.2°F-3.2°C 20.0°F-6.7°C 77% 7.0 mph S11.3 kmh S 9.0 mph14.5 kmh 28.92 in979.3 mb 0.00 in0.0 mm 0.00 in0.0 mm 0.00 in0.0 mm
11:30 AM 26.2°F-3.2°C 20.0°F-6.7°C 77% 6.0 mph S9.7 kmh S 7.0 mph11.3 kmh 28.92 in979.3 mb 0.00 in0.0 mm 0.00 in0.0 mm 0.00 in0.0 mm
11:40 AM 26.2°F-3.2°C 20.0°F-6.7°C 77% 11.0 mph S17.7 kmh S 11.0 mph17.7 kmh 28.92 in979.3 mb 0.00 in0.0 mm 0.00 in0.0 mm 0.00 in0.0 mm
12:00 PM 25.8°F-3.4°C 20.2°F-6.6°C 79% Calm Calm 3.0 mph4.8 kmh 28.92 in979.3 mb 0.00 in0.0 mm 0.00 in0.0 mm 0.00 in0.0 mm
12:10 PM 25.7°F-3.5°C 20.4°F-6.4°C 80% Calm Calm 11.0 mph17.7 kmh 28.93 in979.7 mb 0.00 in0.0 mm 0.00 in0.0 mm 0.00 in0.0 mm
12:30 PM 25.7°F-3.5°C 20.4°F-6.4°C 80% Calm Calm 1.0 mph1.6 kmh 28.93 in979.7 mb 0.00 in0.0 mm 0.00 in0.0 mm 0.00 in0.0 mm
12:40 PM 25.9°F-3.4°C 20.6°F-6.3°C 80% 4.0 mph SSE6.4 kmh SSE 9.0 mph14.5 kmh 28.93 in979.7 mb 0.00 in0.0 mm 0.00 in0.0 mm 0.00 in0.0 mm
01:00 PM 25.7°F-3.5°C 20.4°F-6.4°C 80% 5.0 mph SSE8.0 kmh SSE 5.0 mph8.0 kmh 28.93 in979.7 mb 0.00 in0.0 mm 0.00 in0.0 mm 0.00 in0.0 mm
01:10 PM 25.5°F-3.6°C 20.5°F-6.4°C 81% 3.0 mph SSE4.8 kmh SSE 6.0 mph9.7 kmh 28.93 in979.7 mb 0.00 in0.0 mm 0.00 in0.0 mm 0.00 in0.0 mm
01:30 PM 25.1°F-3.8°C 19.8°F-6.8°C 80% Calm Calm -- 28.94 in980.0 mb 0.00 in0.0 mm 0.00 in0.0 mm 0.00 in0.0 mm
01:40 PM 25.3°F-3.7°C 20.0°F-6.7°C 80% Calm Calm 5.0 mph8.0 kmh 28.93 in979.7 mb 0.00 in0.0 mm 0.00 in0.0 mm 0.00 in0.0 mm
02:00 PM 25.5°F-3.6°C 19.3°F-7.1°C 77% Calm Calm -- 28.94 in980.0 mb 0.00 in0.0 mm 0.00 in0.0 mm 0.00 in0.0 mm
02:10 PM 25.6°F-3.6°C 19.4°F-7.0°C 77% Calm Calm 6.0 mph9.7 kmh 28.94 in980.0 mb 0.00 in0.0 mm 0.00 in0.0 mm 0.00 in0.0 mm
02:30 PM 25.6°F-3.6°C 19.1°F-7.2°C 76% Calm Calm 9.0 mph14.5 kmh 28.94 in980.0 mb 0.00 in0.0 mm 0.00 in0.0 mm 0.00 in0.0 mm
02:40 PM 25.6°F-3.6°C 19.4°F-7.0°C 77% 6.0 mph SSE9.7 kmh SSE 6.0 mph9.7 kmh 28.94 in980.0 mb 0.00 in0.0 mm 0.00 in0.0 mm 0.00 in0.0 mm
03:00 PM 25.5°F-3.6°C 19.6°F-6.9°C 78% 6.0 mph S9.7 kmh S 10.0 mph16.1 kmh 28.95 in980.4 mb 0.00 in0.0 mm 0.00 in0.0 mm 0.00 in0.0 mm
03:09 PM 25.2°F-3.8°C 19.6°F-6.9°C 79% 1.0 mph S1.6 kmh S 11.0 mph17.7 kmh 28.95 in980.4 mb 0.00 in0.0 mm 0.00 in0.0 mm 0.00 in0.0 mm
03:29 PM 25.1°F-3.8°C 19.8°F-6.8°C 80% 4.0 mph S6.4 kmh S 11.0 mph17.7 kmh 28.95 in980.4 mb 0.00 in0.0 mm 0.00 in0.0 mm 0.00 in0.0 mm
03:40 PM 24.9°F-3.9°C 19.9°F-6.7°C 81% 4.0 mph S6.4 kmh S 10.0 mph16.1 kmh 28.96 in980.7 mb 0.00 in0.0 mm 0.00 in0.0 mm 0.00 in0.0 mm
04:00 PM 24.6°F-4.1°C 19.6°F-6.9°C 81% Calm Calm -- 28.96 in980.7 mb 0.00 in0.0 mm 0.00 in0.0 mm 0.00 in0.0 mm
04:10 PM 24.6°F-4.1°C 19.9°F-6.7°C 82% 10.0 mph SE16.1 kmh SE 10.0 mph16.1 kmh 28.96 in980.7 mb 0.00 in0.0 mm 0.00 in0.0 mm 0.00 in0.0 mm
04:29 PM 23.9°F-4.5°C 19.5°F-6.9°C 83% 6.0 mph SE9.7 kmh SE 12.0 mph19.3 kmh 28.96 in980.7 mb 0.00 in0.0 mm 0.00 in0.0 mm 0.00 in0.0 mm
04:40 PM 24.1°F-4.4°C 19.7°F-6.8°C 83% 5.0 mph S8.0 kmh S 12.0 mph19.3 kmh 28.96 in980.7 mb 0.00 in0.0 mm 0.00 in0.0 mm 0.00 in0.0 mm
05:00 PM 24.2°F-4.3°C 18.9°F-7.3°C 80% 11.0 mph SE17.7 kmh SE 12.0 mph19.3 kmh 28.96 in980.7 mb 0.00 in0.0 mm 0.00 in0.0 mm 0.00 in0.0 mm
05:10 PM 24.3°F-4.3°C 19.0°F-7.2°C 80% 9.0 mph SE14.5 kmh SE 14.0 mph22.5 kmh 28.96 in980.7 mb 0.00 in0.0 mm 0.00 in0.0 mm 0.00 in0.0 mm
05:30 PM 24.3°F-4.3°C 18.7°F-7.4°C 79% 13.0 mph SE20.9 kmh SE 13.0 mph20.9 kmh 28.97 in981.0 mb 0.00 in0.0 mm 0.00 in0.0 mm 0.00 in0.0 mm
05:40 PM 24.3°F-4.3°C 18.7°F-7.4°C 79% 6.0 mph SE9.7 kmh SE 18.0 mph29.0 kmh 28.97 in981.0 mb 0.00 in0.0 mm 0.00 in0.0 mm 0.00 in0.0 mm
06:00 PM 23.9°F-4.5°C 19.2°F-7.1°C 82% 13.0 mph SE20.9 kmh SE 14.0 mph22.5 kmh 28.97 in981.0 mb 0.00 in0.0 mm 0.00 in0.0 mm 0.00 in0.0 mm
06:10 PM 23.6°F-4.7°C 19.5°F-6.9°C 84% 4.0 mph SE6.4 kmh SE 19.0 mph30.6 kmh 28.97 in981.0 mb 0.00 in0.0 mm 0.00 in0.0 mm 0.00 in0.0 mm
06:30 PM 23.6°F-4.7°C 21.6°F-5.8°C 92% 12.0 mph SE19.3 kmh SE 12.0 mph19.3 kmh 28.98 in981.4 mb 0.00 in0.0 mm 0.00 in0.0 mm 0.00 in0.0 mm
06:40 PM 23.4°F-4.8°C 19.8°F-6.8°C 86% 13.0 mph SE20.9 kmh SE 15.0 mph24.1 kmh 28.98 in981.4 mb 0.00 in0.0 mm 0.00 in0.0 mm 0.00 in0.0 mm
07:00 PM 23.5°F-4.7°C 19.7°F-6.8°C 85% 17.0 mph SE27.4 kmh SE 17.0 mph27.4 kmh 28.98 in981.4 mb 0.00 in0.0 mm 0.00 in0.0 mm 0.00 in0.0 mm
07:10 PM 23.5°F-4.7°C 19.7°F-6.8°C 85% 15.0 mph SE24.1 kmh SE 17.0 mph27.4 kmh 28.98 in981.4 mb 0.00 in0.0 mm 0.00 in0.0 mm 0.00 in0.0 mm
07:30 PM 23.5°F-4.7°C 19.7°F-6.8°C 85% 9.0 mph SE14.5 kmh SE 9.0 mph14.5 kmh 28.98 in981.4 mb 0.00 in0.0 mm 0.00 in0.0 mm 0.00 in0.0 mm
07:40 PM 23.3°F-4.8°C 19.7°F-6.8°C 86% 7.0 mph SE11.3 kmh SE 14.0 mph22.5 kmh 28.99 in981.7 mb 0.00 in0.0 mm 0.00 in0.0 mm 0.00 in0.0 mm
08:00 PM 23.5°F-4.7°C 19.9°F-6.7°C 86% 14.0 mph SE22.5 kmh SE 14.0 mph22.5 kmh 28.99 in981.7 mb 0.00 in0.0 mm 0.00 in0.0 mm 0.00 in0.0 mm
08:10 PM 23.3°F-4.8°C 19.5°F-6.9°C 85% 6.0 mph SE9.7 kmh SE 17.0 mph27.4 kmh 28.99 in981.7 mb 0.00 in0.0 mm 0.00 in0.0 mm 0.00 in0.0 mm
08:30 PM 23.3°F-4.8°C 19.5°F-6.9°C 85% 10.0 mph SE16.1 kmh SE 17.0 mph27.4 kmh 28.99 in981.7 mb 0.00 in0.0 mm 0.00 in0.0 mm 0.00 in0.0 mm
08:40 PM 23.1°F-4.9°C 19.3°F-7.1°C 85% 11.0 mph ESE17.7 kmh ESE 14.0 mph22.5 kmh 28.99 in981.7 mb 0.00 in0.0 mm 0.00 in0.0 mm 0.00 in0.0 mm
09:00 PM 23.1°F-4.9°C 19.0°F-7.2°C 84% 3.0 mph ESE4.8 kmh ESE 5.0 mph8.0 kmh 29.00 in982.1 mb 0.00 in0.0 mm 0.00 in0.0 mm 0.00 in0.0 mm
09:10 PM 23.3°F-4.8°C 19.2°F-7.1°C 84% 12.0 mph SE19.3 kmh SE 12.0 mph19.3 kmh 29.00 in982.1 mb 0.00 in0.0 mm 0.00 in0.0 mm 0.00 in0.0 mm
09:30 PM 23.7°F-4.6°C 19.3°F-7.1°C 83% Calm Calm -- 29.00 in982.1 mb 0.00 in0.0 mm 0.00 in0.0 mm 0.00 in0.0 mm
09:40 PM 23.8°F-4.6°C 19.4°F-7.0°C 83% Calm Calm 9.0 mph14.5 kmh 29.00 in982.1 mb 0.00 in0.0 mm 0.00 in0.0 mm 0.00 in0.0 mm
10:00 PM 23.6°F-4.7°C 19.5°F-6.9°C 84% 7.0 mph ESE11.3 kmh ESE 7.0 mph11.3 kmh 29.01 in982.4 mb 0.00 in0.0 mm 0.00 in0.0 mm 0.00 in0.0 mm
10:10 PM 23.5°F-4.7°C 19.9°F-6.7°C 86% 3.0 mph ESE4.8 kmh ESE 9.0 mph14.5 kmh 29.01 in982.4 mb 0.00 in0.0 mm 0.00 in0.0 mm 0.00 in0.0 mm
10:30 PM 23.3°F-4.8°C 20.0°F-6.7°C 87% 4.0 mph SSE6.4 kmh SSE 10.0 mph16.1 kmh 29.01 in982.4 mb 0.00 in0.0 mm 0.00 in0.0 mm 0.00 in0.0 mm
10:40 PM 23.4°F-4.8°C 20.4°F-6.4°C 88% 4.0 mph ESE6.4 kmh ESE 11.0 mph17.7 kmh 29.01 in982.4 mb 0.00 in0.0 mm 0.00 in0.0 mm 0.00 in0.0 mm
11:00 PM 23.9°F-4.5°C 21.1°F-6.1°C 89% 6.0 mph SE9.7 kmh SE 6.0 mph9.7 kmh 29.01 in982.4 mb 0.00 in0.0 mm 0.00 in0.0 mm 0.00 in0.0 mm
11:10 PM 23.9°F-4.5°C 21.1°F-6.1°C 89% Calm Calm 9.0 mph14.5 kmh 29.02 in982.7 mb 0.00 in0.0 mm 0.00 in0.0 mm 0.00 in0.0 mm
11:30 PM 23.7°F-4.6°C 20.9°F-6.2°C 89% Calm Calm -- 29.02 in982.7 mb 0.00 in0.0 mm 0.00 in0.0 mm 0.00 in0.0 mm
11:40 PM 23.4°F-4.8°C 20.6°F-6.3°C 89% Calm Calm -- 29.02 in982.7 mb 0.00 in0.0 mm 0.00 in0.0 mm 0.00 in0.0 mm